La Pryor, Texas
Current Conditions -  °F | °C
As of 4:15 PM on Thursday 23 Oct 2014 (Local Time) from KUVA Reporting Station
Broken Clouds Broken Clouds  
Wind Chill: 80°   Ceiling: 7000
Heat Index: 81°   Visibility: 10mi
Dew Point: 61°   Wind: 5mph
Humidity: 52%   Direction: 210°SSW
Pressure: 30.08"   Gusts: NA
Location:  28.94°N, 99.85°W
Report Text: KUVA 232115Z AUTO 21004KT 10SM SCT047 BKN070 27/16 A3008 RMK AO2 T02680161
Loading
Personal Weather Stations






























Interactive Weather Map
Tropical Storm Tracking
New forecast layout! Learn more

10-Day Weather Forecast

Advertisements
Track Severe Weather on mobile